createdAt,value
2019-03-29T00:02:02.409Z,79.21
2019-03-29T00:04:32.705Z,79.19
2019-03-29T00:07:03.971Z,79.21
2019-03-29T00:09:33.318Z,79.19
2019-03-29T00:12:04.914Z,79.22
2019-03-29T00:14:34.012Z,79.22
2019-03-29T00:17:04.359Z,79.23
2019-03-29T00:19:34.682Z,79.14
2019-03-29T00:22:05.288Z,79.35
2019-03-29T00:24:35.295Z,79.59
2019-03-29T00:27:05.605Z,79.55
2019-03-29T00:29:35.933Z,79.60
2019-03-29T00:32:06.292Z,79.79
2019-03-29T00:34:36.568Z,79.76
2019-03-29T00:37:06.824Z,79.70
2019-03-29T00:39:37.139Z,79.57
2019-03-29T00:42:07.426Z,79.77
2019-03-29T00:44:37.677Z,79.93
2019-03-29T00:47:07.996Z,80.02
2019-03-29T00:49:38.267Z,80.12
2019-03-29T00:52:08.604Z,80.08
2019-03-29T00:54:38.880Z,80.28
2019-03-29T00:57:09.199Z,80.22
2019-03-29T00:59:40.191Z,80.17
2019-03-29T01:02:09.758Z,80.14
2019-03-29T01:04:40.061Z,80.10
2019-03-29T01:07:10.360Z,80.16
2019-03-29T01:09:40.603Z,80.28
2019-03-29T01:12:10.894Z,80.41
2019-03-29T01:14:41.177Z,80.48
2019-03-29T01:17:11.486Z,80.47
2019-03-29T01:19:41.750Z,80.52
2019-03-29T01:22:12.074Z,80.54
2019-03-29T01:24:42.379Z,80.59
2019-03-29T01:27:12.644Z,80.64
2019-03-29T01:29:42.920Z,80.65
2019-03-29T01:32:13.265Z,80.62
2019-03-29T01:34:43.518Z,80.49
2019-03-29T01:37:13.843Z,80.63
2019-03-29T01:39:44.106Z,80.65
2019-03-29T01:42:14.460Z,80.68
2019-03-29T01:44:44.755Z,80.83
2019-03-29T01:47:15.057Z,80.83
2019-03-29T01:49:45.374Z,80.80
2019-03-29T01:52:15.664Z,80.80
2019-03-29T01:54:45.988Z,80.73
2019-03-29T01:57:16.264Z,80.83
2019-03-29T01:59:46.544Z,81.03
2019-03-29T02:02:16.848Z,80.87
2019-03-29T02:04:47.138Z,80.84
2019-03-29T02:07:17.447Z,80.83
2019-03-29T02:09:47.735Z,80.83
2019-03-29T02:12:18.068Z,80.84
2019-03-29T02:14:48.606Z,80.87
2019-03-29T02:17:18.884Z,80.92
2019-03-29T02:19:49.214Z,80.97
2019-03-29T02:22:19.516Z,81.00
2019-03-29T02:24:50.035Z,80.96
2019-03-29T02:27:20.086Z,80.85
2019-03-29T02:29:50.368Z,80.95
2019-03-29T02:32:20.748Z,81.07
2019-03-29T02:34:51.053Z,81.13
2019-03-29T02:37:21.345Z,81.14
2019-03-29T02:39:51.632Z,81.15
2019-03-29T02:42:21.899Z,81.02
2019-03-29T02:44:52.266Z,81.16
2019-03-29T02:47:22.431Z,81.30
2019-03-29T02:49:52.727Z,81.31
2019-03-29T02:52:23.059Z,81.28
2019-03-29T02:54:53.385Z,81.20
2019-03-29T02:57:23.656Z,81.31
2019-03-29T02:59:53.934Z,81.33
2019-03-29T03:02:26.492Z,81.37
2019-03-29T03:04:54.576Z,81.38
2019-03-29T03:07:24.859Z,81.45
2019-03-29T03:09:55.181Z,81.35
2019-03-29T03:12:25.462Z,81.36
2019-03-29T03:14:55.747Z,81.35
2019-03-29T03:17:26.053Z,81.39
2019-03-29T03:19:56.397Z,81.37
2019-03-29T03:22:26.747Z,81.43
2019-03-29T03:24:57.139Z,81.44
2019-03-29T03:27:27.411Z,81.50
2019-03-29T03:29:57.698Z,81.50
2019-03-29T03:32:28.033Z,81.81
2019-03-29T03:34:58.339Z,81.89
2019-03-29T03:37:28.559Z,81.93
2019-03-29T03:39:58.817Z,82.10
2019-03-29T03:42:29.116Z,82.09
2019-03-29T03:44:59.451Z,81.91
2019-03-29T03:47:29.746Z,82.30
2019-03-29T03:50:01.222Z,82.30
2019-03-29T03:52:30.391Z,82.09
2019-03-29T03:55:00.676Z,82.29
2019-03-29T03:57:31.008Z,82.37
2019-03-29T04:00:01.310Z,82.42
2019-03-29T04:02:31.667Z,82.68
2019-03-29T04:05:02.029Z,82.80
2019-03-29T04:07:32.288Z,82.79
2019-03-29T04:10:02.558Z,82.84
2019-03-29T04:12:32.897Z,82.62
2019-03-29T04:15:03.248Z,82.78
2019-03-29T04:17:33.577Z,82.72
2019-03-29T04:20:03.996Z,82.46
2019-03-29T04:22:34.251Z,82.35
2019-03-29T04:25:05.110Z,82.54
2019-03-29T04:27:35.412Z,82.39
2019-03-29T04:30:05.924Z,82.35
2019-03-29T04:32:36.187Z,82.41
2019-03-29T04:35:06.522Z,82.38
2019-03-29T04:37:36.826Z,82.31
2019-03-29T04:40:08.706Z,82.31
2019-03-29T04:42:37.459Z,82.25
2019-03-29T04:45:07.785Z,82.09
2019-03-29T04:47:38.118Z,82.27
2019-03-29T04:50:08.597Z,82.27
2019-03-29T04:52:38.842Z,82.27
2019-03-29T04:55:09.136Z,82.27
2019-03-29T04:57:39.454Z,82.26
2019-03-29T05:00:09.792Z,82.22
2019-03-29T05:02:40.180Z,82.32
2019-03-29T05:05:10.484Z,82.38
2019-03-29T05:07:40.845Z,82.35
2019-03-29T05:10:21.153Z,82.12
2019-03-29T05:12:41.502Z,82.34
2019-03-29T05:15:11.795Z,82.25
2019-03-29T05:17:42.147Z,82.37
2019-03-29T05:20:12.428Z,82.32
2019-03-29T05:22:42.722Z,82.22
2019-03-29T05:25:13.096Z,82.26
2019-03-29T05:27:43.434Z,82.26
2019-03-29T05:30:13.740Z,82.34
2019-03-29T05:32:44.082Z,82.33
2019-03-29T05:35:14.410Z,82.19
2019-03-29T05:37:44.733Z,82.27
2019-03-29T05:40:15.034Z,82.23
2019-03-29T05:42:45.316Z,82.48
2019-03-29T05:45:15.590Z,82.48
2019-03-29T05:47:45.951Z,82.27
2019-03-29T05:50:16.238Z,82.18
2019-03-29T05:52:46.685Z,81.90
2019-03-29T05:55:16.928Z,82.00
2019-03-29T05:57:47.234Z,81.82
2019-03-29T06:00:19.232Z,81.94
2019-03-29T06:02:49.649Z,81.48
2019-03-29T06:05:19.918Z,81.95
2019-03-29T06:07:50.374Z,85.96
2019-03-29T06:10:20.678Z,85.17
2019-03-29T06:12:51.035Z,82.70
2019-03-29T06:15:21.332Z,82.41
2019-03-29T06:17:51.626Z,80.49
2019-03-29T06:20:21.976Z,79.33
2019-03-29T06:22:52.327Z,79.18
2019-03-29T06:25:22.628Z,78.18
2019-03-29T06:27:52.891Z,78.11
2019-03-29T06:30:32.913Z,77.99
2019-03-29T06:33:03.222Z,77.38
2019-03-29T06:35:34.614Z,77.01
2019-03-29T06:38:05.232Z,76.66
2019-03-29T06:40:35.588Z,76.51
2019-03-29T06:43:05.993Z,76.65
2019-03-29T06:45:47.421Z,76.89
2019-03-29T06:48:06.603Z,77.38
2019-03-29T06:50:37.585Z,76.60
2019-03-29T06:53:07.869Z,76.33
2019-03-29T06:55:38.207Z,76.02
2019-03-29T06:58:08.553Z,75.53
2019-03-29T07:00:38.858Z,75.47
2019-03-29T07:03:09.291Z,74.52
2019-03-29T07:05:39.560Z,74.17
2019-03-29T07:08:09.833Z,73.84
2019-03-29T07:10:40.180Z,72.66
2019-03-29T07:13:10.499Z,72.98
2019-03-29T07:15:40.825Z,72.75
2019-03-29T07:18:11.231Z,70.82
2019-03-29T07:20:41.787Z,70.86
2019-03-29T07:23:12.092Z,69.34
2019-03-29T07:25:42.447Z,68.34
2019-03-29T07:28:12.725Z,68.37
2019-03-29T07:30:43.105Z,68.38
2019-03-29T07:33:13.386Z,67.96
2019-03-29T07:35:43.732Z,67.28
2019-03-29T07:38:14.034Z,65.41
2019-03-29T07:40:44.397Z,65.50
2019-03-29T07:43:14.798Z,64.67
2019-03-29T07:45:45.148Z,64.12
2019-03-29T07:48:15.553Z,63.96
2019-03-29T07:50:45.888Z,63.26
2019-03-29T07:53:16.208Z,62.93
2019-03-29T07:55:46.863Z,61.53
2019-03-29T07:58:17.043Z,58.66
2019-03-29T08:00:47.400Z,59.76
2019-03-29T08:03:20.945Z,58.99
2019-03-29T08:05:48.060Z,57.70
2019-03-29T08:08:24.641Z,58.67
2019-03-29T08:10:48.701Z,56.82
2019-03-29T08:13:18.998Z,55.99
2019-03-29T08:15:49.308Z,55.44
2019-03-29T08:18:19.578Z,54.46
2019-03-29T08:20:49.875Z,52.48
2019-03-29T08:23:20.210Z,52.34
2019-03-29T08:25:50.516Z,52.20
2019-03-29T08:28:20.813Z,51.61
2019-03-29T08:30:51.182Z,51.28
2019-03-29T08:33:21.520Z,50.46
2019-03-29T08:35:51.905Z,51.99
2019-03-29T08:38:22.272Z,50.09
2019-03-29T08:40:52.551Z,52.50
2019-03-29T08:43:22.891Z,52.54
2019-03-29T08:45:53.187Z,50.96
2019-03-29T08:48:23.568Z,52.20
2019-03-29T08:50:53.892Z,51.56
2019-03-29T08:53:27.277Z,50.97
2019-03-29T08:55:54.542Z,51.94
2019-03-29T08:58:24.876Z,51.20
2019-03-29T09:00:55.130Z,51.16
2019-03-29T09:03:25.474Z,49.17
2019-03-29T09:05:55.761Z,49.71
2019-03-29T09:08:26.080Z,49.75
2019-03-29T09:10:56.378Z,48.04
2019-03-29T09:13:26.770Z,48.96
2019-03-29T09:15:57.120Z,46.91
2019-03-29T09:18:27.472Z,47.02
2019-03-29T09:20:57.776Z,48.78
2019-03-29T09:23:30.137Z,50.25
2019-03-29T09:25:58.343Z,47.30
2019-03-29T09:28:28.673Z,47.06
2019-03-29T09:30:59.020Z,46.35
2019-03-29T09:33:29.427Z,46.86
2019-03-29T09:35:59.695Z,44.55
2019-03-29T09:38:30.063Z,44.53
2019-03-29T09:41:00.379Z,44.38
2019-03-29T09:43:30.915Z,44.29
2019-03-29T09:46:03.243Z,44.11
2019-03-29T09:48:34.461Z,43.64
2019-03-29T09:51:01.879Z,44.83
2019-03-29T09:53:32.232Z,45.96
2019-03-29T09:56:02.541Z,45.92
2019-03-29T09:58:33.000Z,45.82
2019-03-29T10:01:03.416Z,45.97
2019-03-29T10:03:33.737Z,47.50
2019-03-29T10:06:04.036Z,47.95
2019-03-29T10:08:34.411Z,46.66
2019-03-29T10:11:04.590Z,46.53
2019-03-29T10:13:34.906Z,47.86
2019-03-29T10:16:05.182Z,46.95
2019-03-29T10:18:35.553Z,45.32
2019-03-29T10:21:05.983Z,44.49
2019-03-29T10:23:36.267Z,45.46
2019-03-29T10:26:06.692Z,45.00
2019-03-29T10:28:37.070Z,45.87
2019-03-29T10:31:07.415Z,46.33
2019-03-29T10:33:37.691Z,46.13
2019-03-29T10:36:08.153Z,44.92
2019-03-29T10:38:38.443Z,44.92
2019-03-29T10:41:08.788Z,44.29
2019-03-29T10:43:39.194Z,43.54
2019-03-29T10:46:09.533Z,43.33
2019-03-29T10:48:39.857Z,39.87
2019-03-29T10:51:10.281Z,39.45
2019-03-29T10:53:40.551Z,40.90
2019-03-29T10:56:10.926Z,41.68
2019-03-29T10:58:41.195Z,41.73
2019-03-29T11:01:11.657Z,40.78
2019-03-29T11:03:41.928Z,39.78
2019-03-29T11:06:12.256Z,39.34
2019-03-29T11:08:43.680Z,37.97
2019-03-29T11:11:12.853Z,36.90
2019-03-29T11:13:43.150Z,36.38
2019-03-29T11:16:13.453Z,35.73
2019-03-29T11:18:45.757Z,35.82
2019-03-29T11:21:14.084Z,35.49
2019-03-29T11:23:44.370Z,34.64
2019-03-29T11:26:14.711Z,38.39
2019-03-29T11:28:45.011Z,38.69
2019-03-29T11:31:15.337Z,37.47
2019-03-29T11:33:45.847Z,37.45
2019-03-29T11:36:16.193Z,36.73
2019-03-29T11:38:46.596Z,35.18
2019-03-29T11:41:16.921Z,35.89
2019-03-29T11:43:47.249Z,35.64
2019-03-29T11:46:17.543Z,35.05
2019-03-29T11:48:47.885Z,35.03
2019-03-29T11:51:19.631Z,35.19
2019-03-29T11:53:51.467Z,34.50
2019-03-29T11:56:21.283Z,35.29
2019-03-29T11:58:51.951Z,35.89
2019-03-29T12:01:22.314Z,33.08
2019-03-29T12:03:52.725Z,32.18
2019-03-29T12:06:23.006Z,31.60
2019-03-29T12:08:53.615Z,30.28
2019-03-29T12:11:23.604Z,30.49
2019-03-29T12:13:53.939Z,30.72
2019-03-29T12:16:24.259Z,32.71
2019-03-29T12:18:54.689Z,31.75
2019-03-29T12:21:25.025Z,30.45
2019-03-29T12:23:55.501Z,30.54
2019-03-29T12:26:25.958Z,31.80
2019-03-29T12:28:56.296Z,32.18
2019-03-29T12:31:26.634Z,32.23
2019-03-29T12:33:57.015Z,32.07
2019-03-29T12:36:27.430Z,33.44
2019-03-29T12:38:57.729Z,32.82
2019-03-29T12:41:28.004Z,29.81
2019-03-29T12:43:58.304Z,30.30
2019-03-29T12:46:32.099Z,29.93
2019-03-29T12:48:59.131Z,28.33
2019-03-29T12:51:29.522Z,28.30
2019-03-29T12:53:59.886Z,27.93
2019-03-29T12:56:30.201Z,27.15
2019-03-29T12:59:00.575Z,26.14
2019-03-29T13:01:39.436Z,27.62
2019-03-29T13:04:01.200Z,28.54
2019-03-29T13:06:31.625Z,29.41
2019-03-29T13:09:01.919Z,28.97
2019-03-29T13:11:32.274Z,28.66
2019-03-29T13:14:10.146Z,28.84
2019-03-29T13:16:32.998Z,27.57
2019-03-29T13:19:03.281Z,26.07
2019-03-29T13:21:33.583Z,27.19
2019-03-29T13:24:03.849Z,26.76
2019-03-29T13:26:34.135Z,26.72
2019-03-29T13:29:04.443Z,26.76
2019-03-29T13:31:34.822Z,27.49
2019-03-29T13:34:05.080Z,28.23
2019-03-29T13:36:35.447Z,28.29
2019-03-29T13:39:08.436Z,27.48
2019-03-29T13:41:36.724Z,27.21
2019-03-29T13:44:06.993Z,28.97
2019-03-29T13:46:37.368Z,28.45
2019-03-29T13:49:07.621Z,30.37
2019-03-29T13:51:38.115Z,30.01
2019-03-29T13:54:08.393Z,29.50
2019-03-29T13:56:38.867Z,28.17
2019-03-29T13:59:09.179Z,27.16
2019-03-29T14:01:39.572Z,27.23
2019-03-29T14:04:10.115Z,27.09
2019-03-29T14:06:43.391Z,28.08
2019-03-29T14:09:13.698Z,27.95
2019-03-29T14:11:44.042Z,27.26
2019-03-29T14:14:14.341Z,26.46
2019-03-29T14:16:44.758Z,26.14
2019-03-29T14:19:15.054Z,26.59
2019-03-29T14:21:49.723Z,25.69
2019-03-29T14:24:22.598Z,26.53
2019-03-29T14:26:53.113Z,27.31
2019-03-29T14:29:25.889Z,27.42
2019-03-29T14:31:54.459Z,26.76
2019-03-29T14:34:24.525Z,26.84
2019-03-29T14:36:54.911Z,27.76
2019-03-29T14:39:25.297Z,28.74
2019-03-29T14:41:55.513Z,28.55
2019-03-29T14:44:25.867Z,28.30
2019-03-29T14:46:56.213Z,26.56
2019-03-29T14:49:26.490Z,27.10
2019-03-29T14:51:56.805Z,26.31
2019-03-29T14:54:27.129Z,26.79
2019-03-29T14:56:57.724Z,28.50
2019-03-29T14:59:28.010Z,29.19
2019-03-29T15:01:58.319Z,29.80
2019-03-29T15:04:28.660Z,29.44
2019-03-29T15:06:59.053Z,29.03
2019-03-29T15:09:29.332Z,29.38
2019-03-29T15:11:59.649Z,28.52
2019-03-29T15:14:30.279Z,28.46
2019-03-29T15:17:00.613Z,28.17
2019-03-29T15:19:31.035Z,28.16
2019-03-29T15:22:01.491Z,28.46
2019-03-29T15:24:31.813Z,28.58
2019-03-29T15:27:02.112Z,27.88
2019-03-29T15:29:32.493Z,27.80
2019-03-29T15:32:02.899Z,27.30
2019-03-29T15:34:33.397Z,27.81
2019-03-29T15:37:03.876Z,27.97
2019-03-29T15:39:34.293Z,28.31
2019-03-29T15:42:04.641Z,28.20
2019-03-29T15:44:34.952Z,28.35
2019-03-29T15:47:05.225Z,27.92
2019-03-29T15:49:35.528Z,28.14
2019-03-29T15:52:05.883Z,28.95
2019-03-29T15:54:36.194Z,29.48
2019-03-29T15:57:06.482Z,30.18
2019-03-29T15:59:36.767Z,30.11
2019-03-29T16:02:07.092Z,29.57
2019-03-29T16:04:37.543Z,30.15
2019-03-29T16:07:07.869Z,29.94
2019-03-29T16:09:38.363Z,30.30
2019-03-29T16:12:08.675Z,31.14
2019-03-29T16:14:39.037Z,31.26
2019-03-29T16:17:09.363Z,31.28
2019-03-29T16:19:39.748Z,30.93
2019-03-29T16:22:10.078Z,30.47
2019-03-29T16:24:40.414Z,29.82
2019-03-29T16:27:10.766Z,29.77
2019-03-29T16:29:41.060Z,30.07
2019-03-29T16:32:11.395Z,29.43
2019-03-29T16:34:41.709Z,29.62
2019-03-29T16:37:12.047Z,29.61
2019-03-29T16:39:42.359Z,30.23
2019-03-29T16:42:12.707Z,30.21
2019-03-29T16:44:42.979Z,30.51
2019-03-29T16:47:13.361Z,30.73
2019-03-29T16:49:43.634Z,30.83
2019-03-29T16:52:14.001Z,31.97
2019-03-29T16:54:44.311Z,32.63
2019-03-29T16:57:14.663Z,32.98
2019-03-29T16:59:44.963Z,33.96
2019-03-29T17:02:15.615Z,35.18
2019-03-29T17:04:45.971Z,35.69
2019-03-29T17:07:16.261Z,36.79
2019-03-29T17:09:46.595Z,37.26
2019-03-29T17:12:16.895Z,37.62
2019-03-29T17:14:47.206Z,38.82
2019-03-29T17:17:17.551Z,39.27
2019-03-29T17:19:47.887Z,39.82
2019-03-29T17:22:18.531Z,40.49
2019-03-29T17:24:56.760Z,41.55
2019-03-29T17:27:19.145Z,42.45
2019-03-29T17:29:49.512Z,42.80
2019-03-29T17:32:21.592Z,44.04
2019-03-29T17:34:50.246Z,44.30
2019-03-29T17:37:20.564Z,44.78
2019-03-29T17:39:50.856Z,45.18
2019-03-29T17:42:21.302Z,46.26
2019-03-29T17:44:51.653Z,46.60
2019-03-29T17:47:21.943Z,46.93
2019-03-29T17:49:52.282Z,47.41
2019-03-29T17:52:22.730Z,48.09
2019-03-29T17:54:53.007Z,48.67
2019-03-29T17:57:23.361Z,49.23
2019-03-29T17:59:53.647Z,49.67
2019-03-29T18:02:23.939Z,50.32
2019-03-29T18:04:54.347Z,50.70
2019-03-29T18:07:24.661Z,50.86
2019-03-29T18:09:54.967Z,51.93
2019-03-29T18:12:25.323Z,52.12
2019-03-29T18:14:55.647Z,52.38
2019-03-29T18:17:25.939Z,52.68
2019-03-29T18:19:56.278Z,53.17
2019-03-29T18:22:26.647Z,53.41
2019-03-29T18:24:57.022Z,53.65
2019-03-29T18:27:27.388Z,53.78
2019-03-29T18:29:57.681Z,54.18
2019-03-29T18:32:27.969Z,54.39
2019-03-29T18:34:58.355Z,54.89
2019-03-29T18:37:28.679Z,54.95
2019-03-29T18:39:59.001Z,55.29
2019-03-29T18:42:29.355Z,55.39
2019-03-29T18:44:59.735Z,55.72
2019-03-29T18:47:30.105Z,55.79
2019-03-29T18:50:03.874Z,56.25
2019-03-29T18:52:34.081Z,56.91
2019-03-29T18:55:04.369Z,57.82
2019-03-29T18:57:34.865Z,58.20
2019-03-29T19:00:06.191Z,58.49
2019-03-29T19:02:36.636Z,58.88
2019-03-29T19:05:06.967Z,59.09
2019-03-29T19:07:37.306Z,59.11
2019-03-29T19:10:07.799Z,59.21
2019-03-29T19:12:38.166Z,59.53
2019-03-29T19:15:08.551Z,59.65
2019-03-29T19:17:38.901Z,59.87
2019-03-29T19:20:10.226Z,59.96
2019-03-29T19:22:40.000Z,60.18
2019-03-29T19:25:10.154Z,60.47
2019-03-29T19:27:40.512Z,60.60
2019-03-29T19:30:10.868Z,60.83
2019-03-29T19:32:41.245Z,60.99
2019-03-29T19:35:11.559Z,61.18
2019-03-29T19:37:42.019Z,61.43
2019-03-29T19:40:12.414Z,61.70
2019-03-29T19:42:42.786Z,61.85
2019-03-29T19:45:13.069Z,61.91
2019-03-29T19:47:43.343Z,62.01
2019-03-29T19:50:13.651Z,62.22
2019-03-29T19:52:44.059Z,62.66
2019-03-29T19:55:14.447Z,62.88
2019-03-29T19:57:46.469Z,63.04
2019-03-29T20:00:15.388Z,63.07
2019-03-29T20:02:45.779Z,63.22
2019-03-29T20:05:25.917Z,63.67
2019-03-29T20:07:56.785Z,63.77
2019-03-29T20:10:27.107Z,64.03
2019-03-29T20:12:57.404Z,64.05
2019-03-29T20:15:27.723Z,64.46
2019-03-29T20:17:58.329Z,64.44
2019-03-29T20:20:28.683Z,64.42
2019-03-29T20:22:59.025Z,64.32
2019-03-29T20:25:29.343Z,64.44
2019-03-29T20:27:59.783Z,64.76
2019-03-29T20:30:30.188Z,64.96
2019-03-29T20:33:00.537Z,65.23
2019-03-29T20:35:31.049Z,65.33
2019-03-29T20:38:01.373Z,65.57
2019-03-29T20:40:32.193Z,65.72
2019-03-29T20:43:02.257Z,65.96
2019-03-29T20:45:32.674Z,65.90
2019-03-29T20:48:02.991Z,65.89
2019-03-29T20:50:33.324Z,66.27
2019-03-29T20:53:03.760Z,66.41
2019-03-29T20:55:34.073Z,66.50
2019-03-29T20:58:04.389Z,66.85
2019-03-29T21:00:34.796Z,66.64
2019-03-29T21:03:05.125Z,66.84
2019-03-29T21:05:35.405Z,66.85
2019-03-29T21:08:05.759Z,66.81
2019-03-29T21:10:36.063Z,66.80
2019-03-29T21:13:07.292Z,66.89
2019-03-29T21:15:36.832Z,66.90
2019-03-29T21:18:07.189Z,67.00
2019-03-29T21:20:37.610Z,67.23
2019-03-29T21:23:07.962Z,67.19
2019-03-29T21:25:38.263Z,67.30
2019-03-29T21:28:08.599Z,67.38
2019-03-29T21:30:38.933Z,67.59
2019-03-29T21:33:09.253Z,67.62
2019-03-29T21:35:39.540Z,67.62
2019-03-29T21:38:09.883Z,68.17
2019-03-29T21:40:40.236Z,68.22
2019-03-29T21:43:10.518Z,68.36
2019-03-29T21:45:40.807Z,68.79
2019-03-29T21:48:28.038Z,69.09
2019-03-29T21:50:41.727Z,69.08
2019-03-29T21:53:12.084Z,69.22
2019-03-29T21:55:42.588Z,69.37
2019-03-29T21:58:12.884Z,69.33
2019-03-29T22:00:43.250Z,69.29
2019-03-29T22:03:13.640Z,69.46
2019-03-29T22:05:43.931Z,69.71
2019-03-29T22:08:16.451Z,70.06
2019-03-29T22:10:44.499Z,70.53
2019-03-29T22:13:14.835Z,70.33
2019-03-29T22:15:45.194Z,70.38
2019-03-29T22:18:15.484Z,70.65
2019-03-29T22:20:45.840Z,70.78
2019-03-29T22:23:16.167Z,71.25
2019-03-29T22:25:46.543Z,71.10
2019-03-29T22:28:16.883Z,71.00
2019-03-29T22:30:47.208Z,71.51
2019-03-29T22:33:17.539Z,71.58
2019-03-29T22:35:47.861Z,72.91
2019-03-29T22:38:18.180Z,72.53
2019-03-29T22:40:48.522Z,72.88
2019-03-29T22:43:19.009Z,72.83
2019-03-29T22:45:49.316Z,72.45
2019-03-29T22:48:19.616Z,73.01
2019-03-29T22:50:49.944Z,73.31
2019-03-29T22:53:20.268Z,72.85
2019-03-29T22:55:50.555Z,73.26
2019-03-29T22:58:20.853Z,73.78
2019-03-29T23:00:51.709Z,73.66
2019-03-29T23:03:22.019Z,73.20
2019-03-29T23:05:52.323Z,73.06
2019-03-29T23:08:22.632Z,72.74
2019-03-29T23:10:53.005Z,72.75
2019-03-29T23:13:23.320Z,72.63
2019-03-29T23:15:53.648Z,72.71
2019-03-29T23:18:24.036Z,72.14
2019-03-29T23:20:54.292Z,72.02
2019-03-29T23:23:24.600Z,71.93
2019-03-29T23:25:54.870Z,72.32
2019-03-29T23:28:25.164Z,71.96
2019-03-29T23:30:55.450Z,71.87
2019-03-29T23:33:25.759Z,72.00
2019-03-29T23:35:56.039Z,72.07
2019-03-29T23:38:26.336Z,72.25
2019-03-29T23:40:56.639Z,72.10
2019-03-29T23:43:27.018Z,72.11
2019-03-29T23:45:57.298Z,72.39
2019-03-29T23:48:27.634Z,72.81
2019-03-29T23:50:57.938Z,72.89
2019-03-29T23:53:28.289Z,72.90
2019-03-29T23:55:58.558Z,73.12
2019-03-29T23:58:28.898Z,72.88
